KMVL/MVL METAR and TAF weather

Enter ICAO airport designator
Station Type Date Time Source
KMVL METAR 2019/02/16 06:54 UTC NOAA

KMVL 160654Z AUTO 00000KT 10SM BKN039 OVC047 M02/M03 A2968 RMK AO2 SLP061 T10221028


Station Type Date Time Source
KMVL Decoded METAR 2019/02/16 06:54 UTC NOAA

MORRISVILLE STOWE STATE AIRPORT , VT, United States (KMVL) 44-32N 72-37W 223M
Feb 16, 2019 - 01:54 AM EST / 2019.02.16 0654 UTC
Wind: Calm:0
Visibility: 10 mile(s):0
Sky conditions: overcast
Temperature: 28.0 F (-2.2 C)
Dew Point: 27.0 F (-2.8 C)
Relative Humidity: 95%
Pressure (altimeter): 29.68 in. Hg (1005 hPa)
ob: KMVL 160654Z AUTO 00000KT 10SM BKN039 OVC047 M02/M03 A2968 RMK AO2 SLP061 T10221028
cycle: 7

Station Type Date Time Source
KMVL TAF UTC NOAA

Error!


Example: see airport list